sensor_id;sensor_type;location;lat;lon;timestamp;temperature;humidity
46890;DHT22;32625;51.080;16.970;2023-07-22T00:01:43;16.90;99.90
46890;DHT22;32625;51.080;16.970;2023-07-22T00:04:11;16.90;99.90
46890;DHT22;32625;51.080;16.970;2023-07-22T00:06:38;16.80;99.90
46890;DHT22;32625;51.080;16.970;2023-07-22T00:09:05;16.80;99.90
46890;DHT22;32625;51.080;16.970;2023-07-22T00:11:33;16.70;99.90
46890;DHT22;32625;51.080;16.970;2023-07-22T00:14:01;16.70;99.90
46890;DHT22;32625;51.080;16.970;2023-07-22T00:16:28;16.70;99.90
46890;DHT22;32625;51.080;16.970;2023-07-22T00:18:56;16.60;99.90
46890;DHT22;32625;51.080;16.970;2023-07-22T00:21:24;16.50;99.90
46890;DHT22;32625;51.080;16.970;2023-07-22T00:23:53;16.50;99.90
46890;DHT22;32625;51.080;16.970;2023-07-22T00:26:20;16.50;99.90
46890;DHT22;32625;51.080;16.970;2023-07-22T00:28:47;16.40;99.90
46890;DHT22;32625;51.080;16.970;2023-07-22T00:31:15;16.40;99.90
46890;DHT22;32625;51.080;16.970;2023-07-22T00:33:43;16.40;99.90
46890;DHT22;32625;51.080;16.970;2023-07-22T00:36:10;16.40;99.90
46890;DHT22;32625;51.080;16.970;2023-07-22T00:38:37;16.40;99.90
46890;DHT22;32625;51.080;16.970;2023-07-22T00:41:04;16.30;99.90
46890;DHT22;32625;51.080;16.970;2023-07-22T00:43:32;16.20;99.90
46890;DHT22;32625;51.080;16.970;2023-07-22T00:45:59;16.20;99.90
46890;DHT22;32625;51.080;16.970;2023-07-22T00:48:27;16.20;99.90
46890;DHT22;32625;51.080;16.970;2023-07-22T00:50:54;16.20;99.90
46890;DHT22;32625;51.080;16.970;2023-07-22T00:53:22;16.20;99.90
46890;DHT22;32625;51.080;16.970;2023-07-22T00:55:49;16.20;99.90
46890;DHT22;32625;51.080;16.970;2023-07-22T00:58:16;16.20;99.90
46890;DHT22;32625;51.080;16.970;2023-07-22T01:00:43;16.20;99.90
46890;DHT22;32625;51.080;16.970;2023-07-22T01:03:11;16.10;99.90
46890;DHT22;32625;51.080;16.970;2023-07-22T01:05:39;16.20;99.90
46890;DHT22;32625;51.080;16.970;2023-07-22T01:08:06;16.20;99.90
46890;DHT22;32625;51.080;16.970;2023-07-22T01:10:33;16.20;99.90
46890;DHT22;32625;51.080;16.970;2023-07-22T01:13:01;16.20;99.90
46890;DHT22;32625;51.080;16.970;2023-07-22T01:15:28;16.00;99.90
46890;DHT22;32625;51.080;16.970;2023-07-22T01:17:56;16.00;99.90
46890;DHT22;32625;51.080;16.970;2023-07-22T01:20:29;16.10;99.90
46890;DHT22;32625;51.080;16.970;2023-07-22T01:22:57;16.00;99.90
46890;DHT22;32625;51.080;16.970;2023-07-22T01:25:25;16.00;99.90
46890;DHT22;32625;51.080;16.970;2023-07-22T01:27:56;16.00;99.90
46890;DHT22;32625;51.080;16.970;2023-07-22T01:30:23;15.90;99.90
46890;DHT22;32625;51.080;16.970;2023-07-22T01:32:50;15.90;99.90
46890;DHT22;32625;51.080;16.970;2023-07-22T01:35:18;15.80;99.90
46890;DHT22;32625;51.080;16.970;2023-07-22T01:37:46;15.80;99.90
46890;DHT22;32625;51.080;16.970;2023-07-22T01:40:13;15.80;99.90
46890;DHT22;32625;51.080;16.970;2023-07-22T01:42:42;15.70;99.90
46890;DHT22;32625;51.080;16.970;2023-07-22T01:45:10;15.70;99.90
46890;DHT22;32625;51.080;16.970;2023-07-22T01:47:38;15.70;99.90
46890;DHT22;32625;51.080;16.970;2023-07-22T01:50:06;15.70;99.90
46890;DHT22;32625;51.080;16.970;2023-07-22T01:52:33;15.60;99.90
46890;DHT22;32625;51.080;16.970;2023-07-22T01:55:01;15.60;99.90
46890;DHT22;32625;51.080;16.970;2023-07-22T01:57:28;15.60;99.90
46890;DHT22;32625;51.080;16.970;2023-07-22T01:59:55;15.60;99.90
46890;DHT22;32625;51.080;16.970;2023-07-22T02:02:22;15.50;99.90
46890;DHT22;32625;51.080;16.970;2023-07-22T02:04:50;15.50;99.90
46890;DHT22;32625;51.080;16.970;2023-07-22T02:07:17;15.50;99.90
46890;DHT22;32625;51.080;16.970;2023-07-22T02:09:45;15.50;99.90
46890;DHT22;32625;51.080;16.970;2023-07-22T02:12:12;15.40;99.90
46890;DHT22;32625;51.080;16.970;2023-07-22T02:14:39;15.40;99.90
46890;DHT22;32625;51.080;16.970;2023-07-22T02:17:07;15.40;99.90
46890;DHT22;32625;51.080;16.970;2023-07-22T02:19:36;15.30;99.90
46890;DHT22;32625;51.080;16.970;2023-07-22T02:22:04;15.40;99.90
46890;DHT22;32625;51.080;16.970;2023-07-22T02:24:31;15.40;99.90
46890;DHT22;32625;51.080;16.970;2023-07-22T02:26:59;15.40;99.90
46890;DHT22;32625;51.080;16.970;2023-07-22T02:29:26;15.40;99.90
46890;DHT22;32625;51.080;16.970;2023-07-22T02:31:54;15.40;99.90
46890;DHT22;32625;51.080;16.970;2023-07-22T02:34:21;15.50;99.90
46890;DHT22;32625;51.080;16.970;2023-07-22T02:36:48;15.50;99.90
46890;DHT22;32625;51.080;16.970;2023-07-22T02:39:17;15.50;99.90
46890;DHT22;32625;51.080;16.970;2023-07-22T02:41:44;15.50;99.90
46890;DHT22;32625;51.080;16.970;2023-07-22T02:44:11;15.50;99.90
46890;DHT22;32625;51.080;16.970;2023-07-22T02:46:39;15.60;99.90
46890;DHT22;32625;51.080;16.970;2023-07-22T02:49:08;15.60;99.90
46890;DHT22;32625;51.080;16.970;2023-07-22T02:51:35;15.60;99.90
46890;DHT22;32625;51.080;16.970;2023-07-22T02:54:02;15.60;99.90
46890;DHT22;32625;51.080;16.970;2023-07-22T02:56:30;15.60;99.90
46890;DHT22;32625;51.080;16.970;2023-07-22T02:58:58;15.60;99.90
46890;DHT22;32625;51.080;16.970;2023-07-22T03:01:25;15.60;99.90
46890;DHT22;32625;51.080;16.970;2023-07-22T03:03:53;15.60;99.90
46890;DHT22;32625;51.080;16.970;2023-07-22T03:06:20;15.60;99.90
46890;DHT22;32625;51.080;16.970;2023-07-22T03:08:48;15.70;99.90
46890;DHT22;32625;51.080;16.970;2023-07-22T03:11:15;15.70;99.90
46890;DHT22;32625;51.080;16.970;2023-07-22T03:13:43;15.70;99.90
46890;DHT22;32625;51.080;16.970;2023-07-22T03:16:10;15.70;99.90
46890;DHT22;32625;51.080;16.970;2023-07-22T03:18:37;15.70;99.90
46890;DHT22;32625;51.080;16.970;2023-07-22T03:21:07;15.70;99.90
46890;DHT22;32625;51.080;16.970;2023-07-22T03:23:35;15.70;99.90
46890;DHT22;32625;51.080;16.970;2023-07-22T03:26:03;15.70;99.90
46890;DHT22;32625;51.080;16.970;2023-07-22T03:28:30;15.70;99.90
46890;DHT22;32625;51.080;16.970;2023-07-22T03:30:57;15.60;99.90
46890;DHT22;32625;51.080;16.970;2023-07-22T03:33:24;15.70;99.90
46890;DHT22;32625;51.080;16.970;2023-07-22T03:35:51;15.70;99.90
46890;DHT22;32625;51.080;16.970;2023-07-22T03:38:19;15.70;99.90
46890;DHT22;32625;51.080;16.970;2023-07-22T03:40:46;15.70;99.90
46890;DHT22;32625;51.080;16.970;2023-07-22T03:43:14;15.70;99.90
46890;DHT22;32625;51.080;16.970;2023-07-22T03:45:41;15.70;99.90
46890;DHT22;32625;51.080;16.970;2023-07-22T03:48:09;15.70;99.90
46890;DHT22;32625;51.080;16.970;2023-07-22T03:50:37;15.70;99.90
46890;DHT22;32625;51.080;16.970;2023-07-22T03:53:04;15.70;99.90
46890;DHT22;32625;51.080;16.970;2023-07-22T03:55:31;15.70;99.90
46890;DHT22;32625;51.080;16.970;2023-07-22T03:57:58;15.60;99.90
46890;DHT22;32625;51.080;16.970;2023-07-22T04:00:26;15.70;99.90
46890;DHT22;32625;51.080;16.970;2023-07-22T04:02:53;15.70;99.90
46890;DHT22;32625;51.080;16.970;2023-07-22T04:05:20;15.70;99.90
46890;DHT22;32625;51.080;16.970;2023-07-22T04:07:48;15.60;99.90
46890;DHT22;32625;51.080;16.970;2023-07-22T04:10:15;15.60;99.90
46890;DHT22;32625;51.080;16.970;2023-07-22T04:12:42;15.60;99.90
46890;DHT22;32625;51.080;16.970;2023-07-22T04:15:10;15.60;99.90
46890;DHT22;32625;51.080;16.970;2023-07-22T04:17:37;15.60;99.90
46890;DHT22;32625;51.080;16.970;2023-07-22T04:20:05;15.60;99.90
46890;DHT22;32625;51.080;16.970;2023-07-22T04:22:34;15.60;99.90
46890;DHT22;32625;51.080;16.970;2023-07-22T04:25:01;15.60;99.90
46890;DHT22;32625;51.080;16.970;2023-07-22T04:27:29;15.60;99.90
46890;DHT22;32625;51.080;16.970;2023-07-22T04:29:56;15.70;99.90
46890;DHT22;32625;51.080;16.970;2023-07-22T04:32:23;15.70;99.90
46890;DHT22;32625;51.080;16.970;2023-07-22T04:34:50;15.70;99.90
46890;DHT22;32625;51.080;16.970;2023-07-22T04:37:18;15.70;99.90
46890;DHT22;32625;51.080;16.970;2023-07-22T04:39:51;15.80;99.90
46890;DHT22;32625;51.080;16.970;2023-07-22T04:42:18;15.80;99.90
46890;DHT22;32625;51.080;16.970;2023-07-22T04:44:45;15.80;99.90
46890;DHT22;32625;51.080;16.970;2023-07-22T04:47:12;15.80;99.90
46890;DHT22;32625;51.080;16.970;2023-07-22T04:49:39;15.90;99.90
46890;DHT22;32625;51.080;16.970;2023-07-22T04:52:07;15.90;99.90
46890;DHT22;32625;51.080;16.970;2023-07-22T04:54:34;15.90;99.90
46890;DHT22;32625;51.080;16.970;2023-07-22T04:57:02;15.90;99.90
46890;DHT22;32625;51.080;16.970;2023-07-22T04:59:29;16.00;99.90
46890;DHT22;32625;51.080;16.970;2023-07-22T05:01:57;16.00;99.90
46890;DHT22;32625;51.080;16.970;2023-07-22T05:04:24;16.00;99.90
46890;DHT22;32625;51.080;16.970;2023-07-22T05:06:51;16.00;99.90
46890;DHT22;32625;51.080;16.970;2023-07-22T05:09:18;16.00;99.90
46890;DHT22;32625;51.080;16.970;2023-07-22T05:11:45;16.00;99.90
46890;DHT22;32625;51.080;16.970;2023-07-22T05:14:13;16.10;99.90
46890;DHT22;32625;51.080;16.970;2023-07-22T05:16:40;16.10;99.90
46890;DHT22;32625;51.080;16.970;2023-07-22T05:19:07;16.10;99.90
46890;DHT22;32625;51.080;16.970;2023-07-22T05:21:35;16.10;99.90
46890;DHT22;32625;51.080;16.970;2023-07-22T05:24:02;16.20;99.90
46890;DHT22;32625;51.080;16.970;2023-07-22T05:26:29;16.20;99.90
46890;DHT22;32625;51.080;16.970;2023-07-22T05:28:58;16.20;99.90
46890;DHT22;32625;51.080;16.970;2023-07-22T05:31:25;16.20;99.90
46890;DHT22;32625;51.080;16.970;2023-07-22T05:33:52;16.20;99.90
46890;DHT22;32625;51.080;16.970;2023-07-22T05:36:20;16.20;99.90
46890;DHT22;32625;51.080;16.970;2023-07-22T05:38:47;16.20;99.90
46890;DHT22;32625;51.080;16.970;2023-07-22T05:41:15;16.30;99.90
46890;DHT22;32625;51.080;16.970;2023-07-22T05:43:42;16.30;99.90
46890;DHT22;32625;51.080;16.970;2023-07-22T05:46:09;16.40;99.90
46890;DHT22;32625;51.080;16.970;2023-07-22T05:48:36;16.40;99.90
46890;DHT22;32625;51.080;16.970;2023-07-22T05:51:04;16.40;99.90
46890;DHT22;32625;51.080;16.970;2023-07-22T05:53:32;16.50;99.90
46890;DHT22;32625;51.080;16.970;2023-07-22T05:56:00;16.50;99.90
46890;DHT22;32625;51.080;16.970;2023-07-22T05:58:27;16.60;99.90
46890;DHT22;32625;51.080;16.970;2023-07-22T06:00:54;16.60;99.90
46890;DHT22;32625;51.080;16.970;2023-07-22T06:03:22;16.60;99.90
46890;DHT22;32625;51.080;16.970;2023-07-22T06:05:49;16.70;99.90
46890;DHT22;32625;51.080;16.970;2023-07-22T06:08:16;16.70;99.90
46890;DHT22;32625;51.080;16.970;2023-07-22T06:10:44;16.70;99.90
46890;DHT22;32625;51.080;16.970;2023-07-22T06:13:11;16.90;99.90
46890;DHT22;32625;51.080;16.970;2023-07-22T06:15:38;16.90;99.90
46890;DHT22;32625;51.080;16.970;2023-07-22T06:18:06;16.90;99.90
46890;DHT22;32625;51.080;16.970;2023-07-22T06:20:36;17.00;99.90
46890;DHT22;32625;51.080;16.970;2023-07-22T06:23:03;17.00;99.90
46890;DHT22;32625;51.080;16.970;2023-07-22T06:25:31;17.00;99.90
46890;DHT22;32625;51.080;16.970;2023-07-22T06:27:58;17.10;99.90
46890;DHT22;32625;51.080;16.970;2023-07-22T06:30:25;17.20;99.90
46890;DHT22;32625;51.080;16.970;2023-07-22T06:32:52;17.20;99.90
46890;DHT22;32625;51.080;16.970;2023-07-22T06:35:20;17.30;99.90
46890;DHT22;32625;51.080;16.970;2023-07-22T06:37:47;17.30;99.90
46890;DHT22;32625;51.080;16.970;2023-07-22T06:40:14;17.40;99.90
46890;DHT22;32625;51.080;16.970;2023-07-22T06:42:42;17.40;99.90
46890;DHT22;32625;51.080;16.970;2023-07-22T06:45:09;17.50;99.90
46890;DHT22;32625;51.080;16.970;2023-07-22T06:47:37;17.50;99.90
46890;DHT22;32625;51.080;16.970;2023-07-22T06:50:05;17.60;99.90
46890;DHT22;32625;51.080;16.970;2023-07-22T06:52:32;17.50;99.90
46890;DHT22;32625;51.080;16.970;2023-07-22T06:55:00;17.40;99.90
46890;DHT22;32625;51.080;16.970;2023-07-22T06:57:27;17.40;99.90
46890;DHT22;32625;51.080;16.970;2023-07-22T06:59:54;17.40;99.90
46890;DHT22;32625;51.080;16.970;2023-07-22T07:02:22;17.40;99.90
46890;DHT22;32625;51.080;16.970;2023-07-22T07:04:49;17.50;99.90
46890;DHT22;32625;51.080;16.970;2023-07-22T07:07:17;17.60;99.90
46890;DHT22;32625;51.080;16.970;2023-07-22T07:09:44;17.60;99.90
46890;DHT22;32625;51.080;16.970;2023-07-22T07:12:12;17.60;99.90
46890;DHT22;32625;51.080;16.970;2023-07-22T07:14:39;17.60;99.90
46890;DHT22;32625;51.080;16.970;2023-07-22T07:17:06;17.70;99.90
46890;DHT22;32625;51.080;16.970;2023-07-22T07:19:33;17.70;99.90
46890;DHT22;32625;51.080;16.970;2023-07-22T07:22:00;17.70;99.90
46890;DHT22;32625;51.080;16.970;2023-07-22T07:24:28;17.70;99.90
46890;DHT22;32625;51.080;16.970;2023-07-22T07:26:55;17.70;99.90
46890;DHT22;32625;51.080;16.970;2023-07-22T07:29:23;17.70;99.90
46890;DHT22;32625;51.080;16.970;2023-07-22T07:32:10;17.90;99.90
46890;DHT22;32625;51.080;16.970;2023-07-22T07:34:37;18.10;99.90
46890;DHT22;32625;51.080;16.970;2023-07-22T07:37:05;18.20;99.90
46890;DHT22;32625;51.080;16.970;2023-07-22T07:39:32;18.30;99.90
46890;DHT22;32625;51.080;16.970;2023-07-22T07:41:59;18.30;99.90
46890;DHT22;32625;51.080;16.970;2023-07-22T07:44:26;18.30;99.90
46890;DHT22;32625;51.080;16.970;2023-07-22T07:46:54;18.30;99.90
46890;DHT22;32625;51.080;16.970;2023-07-22T07:49:21;18.30;99.90
46890;DHT22;32625;51.080;16.970;2023-07-22T07:51:48;18.30;99.90
46890;DHT22;32625;51.080;16.970;2023-07-22T07:54:15;18.40;99.90
46890;DHT22;32625;51.080;16.970;2023-07-22T07:56:42;18.50;99.90
46890;DHT22;32625;51.080;16.970;2023-07-22T07:59:10;18.70;99.90
46890;DHT22;32625;51.080;16.970;2023-07-22T08:01:37;18.80;99.90
46890;DHT22;32625;51.080;16.970;2023-07-22T08:04:09;18.80;99.90
46890;DHT22;32625;51.080;16.970;2023-07-22T08:06:36;18.70;99.90
46890;DHT22;32625;51.080;16.970;2023-07-22T08:09:04;18.80;99.90
46890;DHT22;32625;51.080;16.970;2023-07-22T08:11:38;18.90;99.90
46890;DHT22;32625;51.080;16.970;2023-07-22T08:14:05;18.90;99.90
46890;DHT22;32625;51.080;16.970;2023-07-22T08:16:35;18.80;99.90
46890;DHT22;32625;51.080;16.970;2023-07-22T08:19:02;18.80;99.90
46890;DHT22;32625;51.080;16.970;2023-07-22T08:21:30;18.80;99.90
46890;DHT22;32625;51.080;16.970;2023-07-22T08:23:57;18.80;99.90
46890;DHT22;32625;51.080;16.970;2023-07-22T08:26:24;18.90;99.60
46890;DHT22;32625;51.080;16.970;2023-07-22T08:28:52;19.10;99.60
46890;DHT22;32625;51.080;16.970;2023-07-22T08:31:19;19.30;98.20
46890;DHT22;32625;51.080;16.970;2023-07-22T08:33:46;19.40;97.80
46890;DHT22;32625;51.080;16.970;2023-07-22T08:36:14;19.40;97.50
46890;DHT22;32625;51.080;16.970;2023-07-22T08:38:41;19.40;96.80
46890;DHT22;32625;51.080;16.970;2023-07-22T08:41:09;19.40;95.60
46890;DHT22;32625;51.080;16.970;2023-07-22T08:43:41;19.50;95.30
46890;DHT22;32625;51.080;16.970;2023-07-22T08:46:12;19.60;95.40
46890;DHT22;32625;51.080;16.970;2023-07-22T08:48:42;19.50;95.20
46890;DHT22;32625;51.080;16.970;2023-07-22T08:51:16;19.60;94.50
46890;DHT22;32625;51.080;16.970;2023-07-22T08:53:45;19.60;93.40
46890;DHT22;32625;51.080;16.970;2023-07-22T08:56:26;19.60;92.20
46890;DHT22;32625;51.080;16.970;2023-07-22T08:58:55;19.80;92.60
46890;DHT22;32625;51.080;16.970;2023-07-22T09:01:23;19.90;92.20
46890;DHT22;32625;51.080;16.970;2023-07-22T09:03:52;19.90;92.00
46890;DHT22;32625;51.080;16.970;2023-07-22T09:06:20;20.00;91.30
46890;DHT22;32625;51.080;16.970;2023-07-22T09:08:48;19.90;91.10
46890;DHT22;32625;51.080;16.970;2023-07-22T09:11:15;20.00;90.80
46890;DHT22;32625;51.080;16.970;2023-07-22T09:13:44;20.20;90.60
46890;DHT22;32625;51.080;16.970;2023-07-22T09:16:13;20.30;89.80
46890;DHT22;32625;51.080;16.970;2023-07-22T09:18:40;20.10;88.90
46890;DHT22;32625;51.080;16.970;2023-07-22T09:21:08;19.90;89.80
46890;DHT22;32625;51.080;16.970;2023-07-22T09:23:37;19.70;90.50
46890;DHT22;32625;51.080;16.970;2023-07-22T09:26:14;19.90;90.80
46890;DHT22;32625;51.080;16.970;2023-07-22T09:28:52;20.00;90.50
46890;DHT22;32625;51.080;16.970;2023-07-22T09:31:27;20.00;90.50
46890;DHT22;32625;51.080;16.970;2023-07-22T09:34:09;19.90;90.40
46890;DHT22;32625;51.080;16.970;2023-07-22T09:36:56;20.10;90.60
46890;DHT22;32625;51.080;16.970;2023-07-22T09:39:24;20.10;90.80
46890;DHT22;32625;51.080;16.970;2023-07-22T09:41:51;20.20;88.80
46890;DHT22;32625;51.080;16.970;2023-07-22T09:44:22;20.20;88.90
46890;DHT22;32625;51.080;16.970;2023-07-22T09:46:49;20.10;88.60
46890;DHT22;32625;51.080;16.970;2023-07-22T09:49:18;20.10;89.40
46890;DHT22;32625;51.080;16.970;2023-07-22T09:51:45;20.00;86.70
46890;DHT22;32625;51.080;16.970;2023-07-22T09:54:28;19.90;86.30
46890;DHT22;32625;51.080;16.970;2023-07-22T09:56:58;20.00;87.10
46890;DHT22;32625;51.080;16.970;2023-07-22T09:59:29;20.20;87.20
46890;DHT22;32625;51.080;16.970;2023-07-22T10:01:58;20.40;85.20
46890;DHT22;32625;51.080;16.970;2023-07-22T10:04:33;20.40;84.10
46890;DHT22;32625;51.080;16.970;2023-07-22T10:07:02;20.30;83.60
46890;DHT22;32625;51.080;16.970;2023-07-22T10:09:30;20.20;84.20
46890;DHT22;32625;51.080;16.970;2023-07-22T10:11:58;20.30;84.70
46890;DHT22;32625;51.080;16.970;2023-07-22T10:14:27;20.50;82.90
46890;DHT22;32625;51.080;16.970;2023-07-22T10:16:59;20.70;81.80
46890;DHT22;32625;51.080;16.970;2023-07-22T10:19:26;20.60;79.30
46890;DHT22;32625;51.080;16.970;2023-07-22T10:21:54;20.50;79.60
46890;DHT22;32625;51.080;16.970;2023-07-22T10:24:22;20.60;78.70
46890;DHT22;32625;51.080;16.970;2023-07-22T10:26:49;20.70;78.90
46890;DHT22;32625;51.080;16.970;2023-07-22T10:29:19;20.80;78.30
46890;DHT22;32625;51.080;16.970;2023-07-22T10:31:47;20.70;78.30
46890;DHT22;32625;51.080;16.970;2023-07-22T10:34:26;20.70;78.60
46890;DHT22;32625;51.080;16.970;2023-07-22T10:36:56;20.50;78.50
46890;DHT22;32625;51.080;16.970;2023-07-22T10:39:28;20.40;78.90
46890;DHT22;32625;51.080;16.970;2023-07-22T10:42:05;20.60;78.50
46890;DHT22;32625;51.080;16.970;2023-07-22T10:44:36;21.00;76.20
46890;DHT22;32625;51.080;16.970;2023-07-22T10:47:05;21.20;75.60
46890;DHT22;32625;51.080;16.970;2023-07-22T10:49:50;21.30;72.30
46890;DHT22;32625;51.080;16.970;2023-07-22T10:52:41;21.20;70.50
46890;DHT22;32625;51.080;16.970;2023-07-22T10:55:17;21.10;70.50
46890;DHT22;32625;51.080;16.970;2023-07-22T10:57:49;21.30;70.50
46890;DHT22;32625;51.080;16.970;2023-07-22T11:00:21;21.60;69.20
46890;DHT22;32625;51.080;16.970;2023-07-22T11:03:10;21.60;69.00
46890;DHT22;32625;51.080;16.970;2023-07-22T11:05:51;21.40;70.00
46890;DHT22;32625;51.080;16.970;2023-07-22T11:08:39;21.30;68.80
46890;DHT22;32625;51.080;16.970;2023-07-22T11:11:07;21.30;69.70
46890;DHT22;32625;51.080;16.970;2023-07-22T11:13:40;21.20;70.50
46890;DHT22;32625;51.080;16.970;2023-07-22T11:16:11;21.10;71.50
46890;DHT22;32625;51.080;16.970;2023-07-22T11:18:40;21.10;71.10
46890;DHT22;32625;51.080;16.970;2023-07-22T11:21:12;21.00;72.30
46890;DHT22;32625;51.080;16.970;2023-07-22T11:23:39;21.10;72.60
46890;DHT22;32625;51.080;16.970;2023-07-22T11:26:06;21.30;72.30
46890;DHT22;32625;51.080;16.970;2023-07-22T11:28:33;21.50;72.00
46890;DHT22;32625;51.080;16.970;2023-07-22T11:31:01;21.70;68.30
46890;DHT22;32625;51.080;16.970;2023-07-22T11:33:38;22.00;65.30
46890;DHT22;32625;51.080;16.970;2023-07-22T11:36:06;21.90;65.70
46890;DHT22;32625;51.080;16.970;2023-07-22T11:38:34;21.90;66.20
46890;DHT22;32625;51.080;16.970;2023-07-22T11:41:01;21.80;67.00
46890;DHT22;32625;51.080;16.970;2023-07-22T11:43:29;21.80;68.40
46890;DHT22;32625;51.080;16.970;2023-07-22T11:45:56;21.90;69.10
46890;DHT22;32625;51.080;16.970;2023-07-22T11:48:23;22.00;67.50
46890;DHT22;32625;51.080;16.970;2023-07-22T11:50:50;21.80;66.20
46890;DHT22;32625;51.080;16.970;2023-07-22T11:53:18;21.80;67.30
46890;DHT22;32625;51.080;16.970;2023-07-22T11:55:45;21.90;67.20
46890;DHT22;32625;51.080;16.970;2023-07-22T11:58:12;21.90;66.30
46890;DHT22;32625;51.080;16.970;2023-07-22T12:00:42;22.00;65.70
46890;DHT22;32625;51.080;16.970;2023-07-22T12:03:33;22.00;64.90
46890;DHT22;32625;51.080;16.970;2023-07-22T12:06:03;22.00;64.80
46890;DHT22;32625;51.080;16.970;2023-07-22T12:08:31;22.00;65.30
46890;DHT22;32625;51.080;16.970;2023-07-22T12:10:59;22.00;66.20
46890;DHT22;32625;51.080;16.970;2023-07-22T12:13:27;22.00;64.80
46890;DHT22;32625;51.080;16.970;2023-07-22T12:16:04;21.90;63.50
46890;DHT22;32625;51.080;16.970;2023-07-22T12:18:45;21.80;63.60
46890;DHT22;32625;51.080;16.970;2023-07-22T12:21:14;21.70;64.50
46890;DHT22;32625;51.080;16.970;2023-07-22T12:23:42;22.00;64.10
46890;DHT22;32625;51.080;16.970;2023-07-22T12:26:09;22.30;61.50
46890;DHT22;32625;51.080;16.970;2023-07-22T12:28:37;22.60;60.70
46890;DHT22;32625;51.080;16.970;2023-07-22T12:31:04;22.80;60.00
46890;DHT22;32625;51.080;16.970;2023-07-22T12:33:31;22.60;58.20
46890;DHT22;32625;51.080;16.970;2023-07-22T12:35:58;22.70;57.20
46890;DHT22;32625;51.080;16.970;2023-07-22T12:38:26;22.70;57.10
46890;DHT22;32625;51.080;16.970;2023-07-22T12:40:53;22.90;56.80
46890;DHT22;32625;51.080;16.970;2023-07-22T12:43:20;23.00;57.10
46890;DHT22;32625;51.080;16.970;2023-07-22T12:45:47;23.20;57.80
46890;DHT22;32625;51.080;16.970;2023-07-22T12:48:15;23.40;57.10
46890;DHT22;32625;51.080;16.970;2023-07-22T12:50:45;23.40;55.50
46890;DHT22;32625;51.080;16.970;2023-07-22T12:53:14;23.40;56.30
46890;DHT22;32625;51.080;16.970;2023-07-22T12:55:41;23.40;57.50
46890;DHT22;32625;51.080;16.970;2023-07-22T12:58:09;23.40;56.40
46890;DHT22;32625;51.080;16.970;2023-07-22T13:00:36;23.40;55.50
46890;DHT22;32625;51.080;16.970;2023-07-22T13:03:03;23.20;55.60
46890;DHT22;32625;51.080;16.970;2023-07-22T13:05:31;23.00;55.50
46890;DHT22;32625;51.080;16.970;2023-07-22T13:07:58;22.90;55.90
46890;DHT22;32625;51.080;16.970;2023-07-22T13:10:28;22.80;55.70
46890;DHT22;32625;51.080;16.970;2023-07-22T13:12:56;22.90;55.10
46890;DHT22;32625;51.080;16.970;2023-07-22T13:15:23;23.20;55.30
46890;DHT22;32625;51.080;16.970;2023-07-22T13:17:50;23.40;55.20
46890;DHT22;32625;51.080;16.970;2023-07-22T13:20:17;23.50;54.60
46890;DHT22;32625;51.080;16.970;2023-07-22T13:22:45;23.30;53.10
46890;DHT22;32625;51.080;16.970;2023-07-22T13:25:12;23.10;53.70
46890;DHT22;32625;51.080;16.970;2023-07-22T13:27:39;22.90;54.10
46890;DHT22;32625;51.080;16.970;2023-07-22T13:30:08;22.90;54.10
46890;DHT22;32625;51.080;16.970;2023-07-22T13:32:35;23.00;54.10
46890;DHT22;32625;51.080;16.970;2023-07-22T13:35:06;23.10;53.70
46890;DHT22;32625;51.080;16.970;2023-07-22T13:37:33;23.10;53.40
46890;DHT22;32625;51.080;16.970;2023-07-22T13:40:00;23.00;53.20
46890;DHT22;32625;51.080;16.970;2023-07-22T13:42:28;23.10;53.90
46890;DHT22;32625;51.080;16.970;2023-07-22T13:44:55;23.20;54.40
46890;DHT22;32625;51.080;16.970;2023-07-22T13:47:22;23.30;53.60
46890;DHT22;32625;51.080;16.970;2023-07-22T13:49:49;23.30;52.90
46890;DHT22;32625;51.080;16.970;2023-07-22T13:52:16;23.30;53.30
46890;DHT22;32625;51.080;16.970;2023-07-22T13:54:44;23.20;53.80
46890;DHT22;32625;51.080;16.970;2023-07-22T13:57:12;23.10;54.10
46890;DHT22;32625;51.080;16.970;2023-07-22T13:59:39;23.00;54.30
46890;DHT22;32625;51.080;16.970;2023-07-22T14:02:07;22.90;53.90
46890;DHT22;32625;51.080;16.970;2023-07-22T14:04:34;22.80;54.00
46890;DHT22;32625;51.080;16.970;2023-07-22T14:07:01;22.80;54.80
46890;DHT22;32625;51.080;16.970;2023-07-22T14:09:29;22.80;55.80
46890;DHT22;32625;51.080;16.970;2023-07-22T14:11:56;22.70;55.00
46890;DHT22;32625;51.080;16.970;2023-07-22T14:14:23;22.70;55.00
46890;DHT22;32625;51.080;16.970;2023-07-22T14:16:56;22.70;55.20
46890;DHT22;32625;51.080;16.970;2023-07-22T14:19:24;22.80;55.50
46890;DHT22;32625;51.080;16.970;2023-07-22T14:21:52;22.90;56.40
46890;DHT22;32625;51.080;16.970;2023-07-22T14:24:19;23.00;56.80
46890;DHT22;32625;51.080;16.970;2023-07-22T14:26:48;23.00;55.10
46890;DHT22;32625;51.080;16.970;2023-07-22T14:29:15;22.90;55.00
46890;DHT22;32625;51.080;16.970;2023-07-22T14:31:43;23.10;54.50
46890;DHT22;32625;51.080;16.970;2023-07-22T14:34:10;23.10;54.40
46890;DHT22;32625;51.080;16.970;2023-07-22T14:36:37;23.00;53.50
46890;DHT22;32625;51.080;16.970;2023-07-22T14:39:04;22.90;55.00
46890;DHT22;32625;51.080;16.970;2023-07-22T14:41:32;23.00;53.30
46890;DHT22;32625;51.080;16.970;2023-07-22T14:43:59;23.00;53.40
46890;DHT22;32625;51.080;16.970;2023-07-22T14:46:26;22.90;53.60
46890;DHT22;32625;51.080;16.970;2023-07-22T14:48:54;22.90;54.40
46890;DHT22;32625;51.080;16.970;2023-07-22T14:51:21;22.80;54.00
46890;DHT22;32625;51.080;16.970;2023-07-22T14:53:48;22.80;54.20
46890;DHT22;32625;51.080;16.970;2023-07-22T14:56:15;22.80;55.50
46890;DHT22;32625;51.080;16.970;2023-07-22T14:58:42;22.70;55.50
46890;DHT22;32625;51.080;16.970;2023-07-22T15:01:10;22.70;54.50
46890;DHT22;32625;51.080;16.970;2023-07-22T15:03:37;22.70;54.60
46890;DHT22;32625;51.080;16.970;2023-07-22T15:06:06;22.70;54.30
46890;DHT22;32625;51.080;16.970;2023-07-22T15:08:33;22.90;54.50
46890;DHT22;32625;51.080;16.970;2023-07-22T15:11:01;23.10;54.80
46890;DHT22;32625;51.080;16.970;2023-07-22T15:13:28;23.20;54.20
46890;DHT22;32625;51.080;16.970;2023-07-22T15:15:56;23.30;53.50
46890;DHT22;32625;51.080;16.970;2023-07-22T15:18:23;23.30;52.40
46890;DHT22;32625;51.080;16.970;2023-07-22T15:20:51;23.20;52.90
46890;DHT22;32625;51.080;16.970;2023-07-22T15:23:19;23.20;53.70